PWSweather.com
Personal Weather Stations
Station Observations
TUGLIE
Tuglie Meteo, TuglieIT

Tuglie MeteoTuglieIT

Lat: 40.0726, Lon: 18.1016

Elevation: 270

Station Type: La Crosse WS-2300

http://www.tuglie.com/situazione.asp

Latest ConditionsUpdated 11:20:08 PM GMT+01:01 Thursday, Jul 18, 2019
Currently Today's Max Today's Min Today's Average
Temperature 70.5°F21.4°C 84.1°F28.9°C 66.0°F18.9°C 75.5°F24.2°C
Dew Point 62.6°F17.0°C 64.7°F18.2°C 51.0°F10.6°C 60.5°F15.8°C
Winds Calm Calm 8.1 mph -13.0 kmh - - 2.5 mph 4.0 kmh
Wind Gusts -- 12.1 mph19.5 kmh - -
Humidity 76% 81% 32% 62%
Pressure 29.91 in1012.9 mb 29.91 in1012.9 mb 29.82 in1009.8 mb -
Hour Temp Dew Point Humidity Winds Wind Gusts Pressure Precip Precip Rate Daily Precip Total
11:20 PM 70.5°F21.4°C 62.6°F17.0°C 76% Calm Calm -- 29.91 in1012.9 mb - 0.00 in0.0 mm 0.00 in0.0 mm
11:10 PM 71.2°F21.8°C 62.9°F17.2°C 75% Calm Calm -- 29.91 in1012.9 mb - 0.00 in0.0 mm 0.00 in0.0 mm
11:00 PM 71.8°F22.1°C 63.4°F17.4°C 75% Calm Calm -- 29.91 in1012.9 mb - 0.00 in0.0 mm 0.00 in0.0 mm
10:50 PM 72.0°F22.2°C 64.0°F17.8°C 76% Calm Calm -- 29.91 in1012.9 mb - 0.00 in0.0 mm 0.00 in0.0 mm
10:40 PM 71.8°F22.1°C 63.8°F17.7°C 76% Calm Calm -- 29.91 in1012.9 mb - 0.00 in0.0 mm 0.00 in0.0 mm
10:30 PM 71.8°F22.1°C 63.8°F17.7°C 76% Calm Calm -- 29.90 in1012.5 mb - 0.00 in0.0 mm 0.00 in0.0 mm
10:20 PM 71.6°F22.0°C 63.3°F17.4°C 75% Calm Calm -- 29.90 in1012.5 mb - 0.00 in0.0 mm 0.00 in0.0 mm
10:10 PM 71.8°F22.1°C 63.1°F17.3°C 74% Calm Calm -- 29.90 in1012.5 mb - 0.00 in0.0 mm 0.00 in0.0 mm
10:00 PM 72.3°F22.4°C 63.6°F17.6°C 74% Calm Calm -- 29.90 in1012.5 mb - 0.00 in0.0 mm 0.00 in0.0 mm
09:50 PM 72.1°F22.3°C 63.4°F17.4°C 74% 0.9 mph SSE1.4 kmh SSE 3.1 mph5.0 kmh 29.90 in1012.5 mb - 0.00 in0.0 mm 0.00 in0.0 mm
09:40 PM 72.3°F22.4°C 63.6°F17.6°C 74% Calm Calm -- 29.90 in1012.5 mb - 0.00 in0.0 mm 0.00 in0.0 mm
09:30 PM 72.7°F22.6°C 63.5°F17.5°C 73% Calm Calm -- 29.90 in1012.5 mb - 0.00 in0.0 mm 0.00 in0.0 mm
09:20 PM 73.0°F22.8°C 63.9°F17.7°C 73% Calm Calm -- 29.90 in1012.5 mb - 0.00 in0.0 mm 0.00 in0.0 mm
09:10 PM 73.2°F22.9°C 63.6°F17.6°C 72% 0.3 mph S0.5 kmh S 2.5 mph4.0 kmh 29.90 in1012.5 mb - 0.00 in0.0 mm 0.00 in0.0 mm
09:00 PM 73.6°F23.1°C 64.0°F17.8°C 72% Calm Calm -- 29.89 in1012.2 mb - 0.00 in0.0 mm 0.00 in0.0 mm
08:50 PM 73.8°F23.2°C 63.8°F17.7°C 71% 0.9 mph S1.4 kmh S 3.4 mph5.5 kmh 29.89 in1012.2 mb - 0.00 in0.0 mm 0.00 in0.0 mm
08:40 PM 73.9°F23.3°C 63.9°F17.7°C 71% Calm Calm -- 29.89 in1012.2 mb - 0.00 in0.0 mm 0.00 in0.0 mm
08:30 PM 74.1°F23.4°C 63.7°F17.6°C 70% 0.1 mph SSW0.2 kmh SSW -- 29.89 in1012.2 mb - 0.00 in0.0 mm 0.00 in0.0 mm
08:20 PM 74.5°F23.6°C 63.6°F17.6°C 69% 2.7 mph S4.3 kmh S 3.6 mph5.8 kmh 29.88 in1011.9 mb - 0.00 in0.0 mm 0.00 in0.0 mm
08:10 PM 74.7°F23.7°C 63.8°F17.7°C 69% Calm Calm -- 29.88 in1011.9 mb - 0.00 in0.0 mm 0.00 in0.0 mm
08:00 PM 75.0°F23.9°C 63.7°F17.6°C 68% 1.1 mph SW1.8 kmh SW 3.6 mph5.8 kmh 29.88 in1011.9 mb - 0.00 in0.0 mm 0.00 in0.0 mm
07:50 PM 75.0°F23.9°C 63.3°F17.4°C 67% 0.6 mph SW1.0 kmh SW 2.7 mph4.3 kmh 29.87 in1011.5 mb - 0.00 in0.0 mm 0.00 in0.0 mm
07:40 PM 75.4°F24.1°C 63.7°F17.6°C 67% 0.6 mph SW1.0 kmh SW 4.7 mph7.6 kmh 29.88 in1011.9 mb - 0.00 in0.0 mm 0.00 in0.0 mm
07:30 PM 75.6°F24.2°C 63.9°F17.7°C 67% Calm Calm -- 29.87 in1011.5 mb - 0.00 in0.0 mm 0.00 in0.0 mm
07:20 PM 76.1°F24.5°C 63.9°F17.7°C 66% 3.2 mph WSW5.1 kmh WSW 5.4 mph8.7 kmh 29.87 in1011.5 mb - 0.00 in0.0 mm 0.00 in0.0 mm
07:10 PM 76.6°F24.8°C 64.0°F17.8°C 65% 0.5 mph WNW0.8 kmh WNW -- 29.87 in1011.5 mb - 0.00 in0.0 mm 0.00 in0.0 mm
07:00 PM 76.8°F24.9°C 63.3°F17.4°C 63% 0.3 mph WSW0.5 kmh WSW 4.9 mph7.9 kmh 29.86 in1011.2 mb - 0.00 in0.0 mm 0.00 in0.0 mm
06:50 PM 77.4°F25.2°C 63.3°F17.4°C 62% 0.4 mph WSW0.6 kmh WSW 4.2 mph6.8 kmh 29.86 in1011.2 mb - 0.00 in0.0 mm 0.00 in0.0 mm
06:40 PM 77.9°F25.5°C 61.9°F16.6°C 58% 3.4 mph SW5.5 kmh SW 7.4 mph11.9 kmh 29.86 in1011.2 mb - 0.00 in0.0 mm 0.00 in0.0 mm
06:30 PM 78.4°F25.8°C 62.4°F16.9°C 58% 2.0 mph W3.2 kmh W 4.9 mph7.9 kmh 29.86 in1011.2 mb - 0.00 in0.0 mm 0.00 in0.0 mm
06:20 PM 78.6°F25.9°C 63.1°F17.3°C 59% 0.8 mph SW1.3 kmh SW -- 29.85 in1010.8 mb - 0.00 in0.0 mm 0.00 in0.0 mm
06:10 PM 78.8°F26.0°C 63.2°F17.3°C 59% 3.0 mph WSW4.8 kmh WSW 7.8 mph12.6 kmh 29.85 in1010.8 mb - 0.00 in0.0 mm 0.00 in0.0 mm
06:00 PM 79.3°F26.3°C 63.8°F17.7°C 59% 3.3 mph WSW5.3 kmh WSW 6.3 mph10.1 kmh 29.86 in1011.2 mb - 0.00 in0.0 mm 0.00 in0.0 mm
05:50 PM 79.5°F26.4°C 63.9°F17.7°C 59% 4.6 mph WSW7.4 kmh WSW 6.3 mph10.1 kmh 29.85 in1010.8 mb - 0.00 in0.0 mm 0.00 in0.0 mm
05:40 PM 80.2°F26.8°C 63.1°F17.3°C 56% 3.0 mph WSW4.8 kmh WSW 6.7 mph10.8 kmh 29.85 in1010.8 mb - 0.00 in0.0 mm 0.00 in0.0 mm
05:30 PM 80.4°F26.9°C 62.8°F17.1°C 55% 4.2 mph W6.8 kmh W 8.3 mph13.4 kmh 29.85 in1010.8 mb - 0.00 in0.0 mm 0.00 in0.0 mm
05:20 PM 80.4°F26.9°C 63.3°F17.4°C 56% 3.1 mph W5.0 kmh W 6.0 mph9.7 kmh 29.85 in1010.8 mb - 0.00 in0.0 mm 0.00 in0.0 mm
05:10 PM 80.8°F27.1°C 62.1°F16.7°C 53% 3.7 mph W6.0 kmh W 6.7 mph10.8 kmh 29.84 in1010.5 mb - 0.00 in0.0 mm 0.00 in0.0 mm
05:00 PM 81.2°F27.3°C 59.6°F15.3°C 48% 1.9 mph SW3.1 kmh SW 5.1 mph8.2 kmh 29.84 in1010.5 mb - 0.00 in0.0 mm 0.00 in0.0 mm
04:50 PM 82.0°F27.8°C 58.6°F14.8°C 45% 4.4 mph SW7.1 kmh SW 6.7 mph10.8 kmh 29.84 in1010.5 mb - 0.00 in0.0 mm 0.00 in0.0 mm
04:40 PM 81.6°F27.6°C 56.3°F13.5°C 42% 4.1 mph W6.6 kmh W 8.0 mph12.9 kmh 29.84 in1010.5 mb - 0.00 in0.0 mm 0.00 in0.0 mm
04:30 PM 82.1°F27.8°C 58.0°F14.4°C 44% 3.8 mph W6.1 kmh W 6.7 mph10.8 kmh 29.85 in1010.8 mb - 0.00 in0.0 mm 0.00 in0.0 mm
04:20 PM 81.7°F27.6°C 58.9°F14.9°C 46% 5.1 mph WSW8.2 kmh WSW 7.2 mph11.6 kmh 29.84 in1010.5 mb - 0.00 in0.0 mm 0.00 in0.0 mm
04:10 PM 82.2°F27.9°C 58.1°F14.5°C 44% 6.2 mph W10.0 kmh W 8.7 mph14.0 kmh 29.85 in1010.8 mb - 0.00 in0.0 mm 0.00 in0.0 mm
04:00 PM 82.0°F27.8°C 58.6°F14.8°C 45% 5.2 mph WSW8.4 kmh WSW 8.0 mph12.9 kmh 29.85 in1010.8 mb - 0.00 in0.0 mm 0.00 in0.0 mm
03:50 PM 82.9°F28.3°C 58.8°F14.9°C 44% 4.3 mph WSW6.9 kmh WSW 8.3 mph13.4 kmh 29.85 in1010.8 mb - 0.00 in0.0 mm 0.00 in0.0 mm
03:40 PM 82.3°F27.9°C 59.4°F15.2°C 46% 4.8 mph WSW7.7 kmh WSW 6.7 mph10.8 kmh 29.85 in1010.8 mb - 0.00 in0.0 mm 0.00 in0.0 mm
03:30 PM 82.8°F28.2°C 58.0°F14.4°C 43% 3.5 mph WSW5.6 kmh WSW 6.9 mph11.1 kmh 29.85 in1010.8 mb - 0.00 in0.0 mm 0.00 in0.0 mm
03:20 PM 82.8°F28.2°C 58.0°F14.4°C 43% 6.4 mph W10.3 kmh W 6.3 mph10.1 kmh 29.85 in1010.8 mb - 0.00 in0.0 mm 0.00 in0.0 mm
03:10 PM 83.1°F28.4°C 56.3°F13.5°C 40% 2.4 mph WSW3.9 kmh WSW 5.4 mph8.7 kmh 29.85 in1010.8 mb - 0.00 in0.0 mm 0.00 in0.0 mm
03:00 PM 83.3°F28.5°C 58.5°F14.7°C 43% 3.7 mph WSW6.0 kmh WSW 9.4 mph15.1 kmh 29.85 in1010.8 mb - 0.00 in0.0 mm 0.00 in0.0 mm
02:50 PM 83.5°F28.6°C 57.3°F14.1°C 41% 3.4 mph W5.5 kmh W 5.8 mph9.3 kmh 29.85 in1010.8 mb - 0.00 in0.0 mm 0.00 in0.0 mm
02:40 PM 83.8°F28.8°C 56.2°F13.4°C 39% 4.8 mph W7.7 kmh W 3.8 mph6.1 kmh 29.85 in1010.8 mb - 0.00 in0.0 mm 0.00 in0.0 mm
02:30 PM 84.0°F28.9°C 54.9°F12.7°C 37% 6.2 mph WSW10.0 kmh WSW 8.0 mph12.9 kmh 29.85 in1010.8 mb - 0.00 in0.0 mm 0.00 in0.0 mm
02:20 PM 84.0°F28.9°C 51.0°F10.6°C 32% 7.6 mph WSW12.2 kmh WSW 12.1 mph19.5 kmh 29.85 in1010.8 mb - 0.00 in0.0 mm 0.00 in0.0 mm
02:10 PM 84.0°F28.9°C 51.8°F11.0°C 33% 8.1 mph SW13.0 kmh SW 10.3 mph16.6 kmh 29.86 in1011.2 mb - 0.00 in0.0 mm 0.00 in0.0 mm
02:00 PM 84.0°F28.9°C 53.4°F11.9°C 35% 4.1 mph W6.6 kmh W 7.4 mph11.9 kmh 29.85 in1010.8 mb - 0.00 in0.0 mm 0.00 in0.0 mm
01:50 PM 84.0°F28.9°C 54.9°F12.7°C 37% 5.7 mph W9.2 kmh W 8.9 mph14.3 kmh 29.85 in1010.8 mb - 0.00 in0.0 mm 0.00 in0.0 mm
01:40 PM 84.0°F28.9°C 54.2°F12.3°C 36% 4.2 mph SW6.8 kmh SW 6.3 mph10.1 kmh 29.86 in1011.2 mb - 0.00 in0.0 mm 0.00 in0.0 mm
01:30 PM 83.7°F28.7°C 53.9°F12.2°C 36% 6.7 mph WSW10.8 kmh WSW 10.3 mph16.6 kmh 29.86 in1011.2 mb - 0.00 in0.0 mm 0.00 in0.0 mm
01:20 PM 84.1°F28.9°C 56.5°F13.6°C 39% 4.0 mph WSW6.4 kmh WSW 8.0 mph12.9 kmh 29.86 in1011.2 mb - 0.00 in0.0 mm 0.00 in0.0 mm
01:10 PM 84.0°F28.9°C 58.5°F14.7°C 42% 3.5 mph WSW5.6 kmh WSW 5.1 mph8.2 kmh 29.85 in1010.8 mb - 0.00 in0.0 mm 0.00 in0.0 mm
01:00 PM 83.1°F28.4°C 58.9°F14.9°C 44% 5.8 mph WNW9.3 kmh WNW 6.7 mph10.8 kmh 29.86 in1011.2 mb - 0.00 in0.0 mm 0.00 in0.0 mm
12:50 PM 82.7°F28.2°C 59.8°F15.4°C 46% 3.9 mph NW6.3 kmh NW 7.2 mph11.6 kmh 29.86 in1011.2 mb - 0.00 in0.0 mm 0.00 in0.0 mm
12:40 PM 83.1°F28.4°C 59.6°F15.3°C 45% 5.9 mph W9.5 kmh W 6.9 mph11.1 kmh 29.86 in1011.2 mb - 0.00 in0.0 mm 0.00 in0.0 mm
12:30 PM 83.3°F28.5°C 60.4°F15.8°C 46% 3.0 mph WSW4.8 kmh WSW 8.3 mph13.4 kmh 29.86 in1011.2 mb - 0.00 in0.0 mm 0.00 in0.0 mm
12:20 PM 82.3°F27.9°C 60.1°F15.6°C 47% 2.6 mph W4.2 kmh W 8.0 mph12.9 kmh 29.86 in1011.2 mb - 0.00 in0.0 mm 0.00 in0.0 mm
12:10 PM 82.6°F28.1°C 60.3°F15.7°C 47% 4.6 mph W7.4 kmh W 8.3 mph13.4 kmh 29.87 in1011.5 mb - 0.00 in0.0 mm 0.00 in0.0 mm
12:00 PM 81.8°F27.7°C 59.6°F15.3°C 47% 2.6 mph W4.2 kmh W -- 29.86 in1011.2 mb - 0.00 in0.0 mm 0.00 in0.0 mm
11:50 AM 82.0°F27.8°C 61.0°F16.1°C 49% 4.3 mph WNW6.9 kmh WNW 9.2 mph14.8 kmh 29.86 in1011.2 mb - 0.00 in0.0 mm 0.00 in0.0 mm
11:40 AM 81.5°F27.5°C 59.9°F15.5°C 48% 6.1 mph W9.8 kmh W 10.1 mph16.3 kmh 29.86 in1011.2 mb - 0.00 in0.0 mm 0.00 in0.0 mm
11:30 AM 82.2°F27.9°C 60.6°F15.9°C 48% 4.7 mph WNW7.6 kmh WNW 8.7 mph14.0 kmh 29.86 in1011.2 mb - 0.00 in0.0 mm 0.00 in0.0 mm
11:20 AM 81.9°F27.7°C 59.7°F15.4°C 47% 5.5 mph W8.9 kmh W 6.0 mph9.7 kmh 29.86 in1011.2 mb - 0.00 in0.0 mm 0.00 in0.0 mm
11:10 AM 81.5°F27.5°C 60.0°F15.6°C 48% 4.1 mph WNW6.6 kmh WNW 7.8 mph12.6 kmh 29.86 in1011.2 mb - 0.00 in0.0 mm 0.00 in0.0 mm
11:00 AM 81.1°F27.3°C 59.0°F15.0°C 47% 0.7 mph NNE1.1 kmh NNE 4.0 mph6.4 kmh 29.86 in1011.2 mb - 0.00 in0.0 mm 0.00 in0.0 mm
10:50 AM 81.0°F27.2°C 62.2°F16.8°C 53% 3.9 mph W6.3 kmh W 5.8 mph9.3 kmh 29.86 in1011.2 mb - 0.00 in0.0 mm 0.00 in0.0 mm
10:40 AM 80.4°F26.9°C 61.7°F16.5°C 53% 0.1 mph W0.2 kmh W 2.5 mph4.0 kmh 29.86 in1011.2 mb - 0.00 in0.0 mm 0.00 in0.0 mm
10:30 AM 80.8°F27.1°C 61.5°F16.4°C 52% 1.2 mph WNW1.9 kmh WNW 9.8 mph15.8 kmh 29.86 in1011.2 mb - 0.00 in0.0 mm 0.00 in0.0 mm
10:20 AM 81.3°F27.4°C 60.9°F16.1°C 50% 5.4 mph WNW8.7 kmh WNW 8.9 mph14.3 kmh 29.86 in1011.2 mb - 0.00 in0.0 mm 0.00 in0.0 mm
10:10 AM 79.9°F26.6°C 59.0°F15.0°C 49% 2.2 mph NNW3.5 kmh NNW 5.1 mph8.2 kmh 29.86 in1011.2 mb - 0.00 in0.0 mm 0.00 in0.0 mm
10:00 AM 80.2°F26.8°C 58.7°F14.8°C 48% 1.9 mph NW3.1 kmh NW 4.0 mph6.4 kmh 29.86 in1011.2 mb - 0.00 in0.0 mm 0.00 in0.0 mm
09:50 AM 80.3°F26.8°C 58.8°F14.9°C 48% 5.9 mph NW9.5 kmh NW 10.9 mph17.5 kmh 29.86 in1011.2 mb - 0.00 in0.0 mm 0.00 in0.0 mm
09:40 AM 79.9°F26.6°C 58.4°F14.7°C 48% 2.2 mph W3.5 kmh W 3.6 mph5.8 kmh 29.85 in1010.8 mb - 0.00 in0.0 mm 0.00 in0.0 mm
09:30 AM 79.3°F26.3°C 58.5°F14.7°C 49% 3.0 mph WNW4.8 kmh WNW 7.6 mph12.2 kmh 29.85 in1010.8 mb - 0.00 in0.0 mm 0.00 in0.0 mm
09:20 AM 79.4°F26.3°C 58.6°F14.8°C 49% 1.3 mph NW2.1 kmh NW 6.0 mph9.7 kmh 29.85 in1010.8 mb - 0.00 in0.0 mm 0.00 in0.0 mm
09:10 AM 79.3°F26.3°C 56.8°F13.8°C 46% 1.1 mph WNW1.8 kmh WNW 7.2 mph11.6 kmh 29.85 in1010.8 mb - 0.00 in0.0 mm 0.00 in0.0 mm
09:00 AM 78.4°F25.8°C 58.3°F14.6°C 50% 1.8 mph WNW2.9 kmh WNW 3.6 mph5.8 kmh 29.85 in1010.8 mb - 0.00 in0.0 mm 0.00 in0.0 mm
08:50 AM 78.6°F25.9°C 60.1°F15.6°C 53% 7.0 mph SW11.3 kmh SW 8.0 mph12.9 kmh 29.84 in1010.5 mb - 0.00 in0.0 mm 0.00 in0.0 mm
08:40 AM 78.6°F25.9°C 62.6°F17.0°C 58% 0.6 mph WNW1.0 kmh WNW 3.4 mph5.5 kmh 29.84 in1010.5 mb - 0.00 in0.0 mm 0.00 in0.0 mm
08:30 AM 77.5°F25.3°C 61.1°F16.2°C 57% Calm Calm -- 29.84 in1010.5 mb - 0.00 in0.0 mm 0.00 in0.0 mm
08:20 AM 77.4°F25.2°C 60.9°F16.1°C 57% 1.6 mph W2.6 kmh W 4.5 mph7.2 kmh 29.84 in1010.5 mb - 0.00 in0.0 mm 0.00 in0.0 mm
08:10 AM 77.7°F25.4°C 60.8°F16.0°C 56% 0.2 mph W0.3 kmh W 4.0 mph6.4 kmh 29.84 in1010.5 mb - 0.00 in0.0 mm 0.00 in0.0 mm
08:00 AM 77.4°F25.2°C 61.0°F16.1°C 57% 2.1 mph NNE3.4 kmh NNE 3.8 mph6.1 kmh 29.83 in1010.2 mb - 0.00 in0.0 mm 0.00 in0.0 mm
07:50 AM 76.7°F24.8°C 61.3°F16.3°C 59% 0.4 mph WNW0.6 kmh WNW -- 29.83 in1010.2 mb - 0.00 in0.0 mm 0.00 in0.0 mm
07:40 AM 76.1°F24.5°C 61.2°F16.2°C 60% Calm Calm -- 29.83 in1010.2 mb - 0.00 in0.0 mm 0.00 in0.0 mm
07:30 AM 75.9°F24.4°C 62.9°F17.2°C 64% Calm Calm -- 29.83 in1010.2 mb - 0.00 in0.0 mm 0.00 in0.0 mm
07:20 AM 75.4°F24.1°C 62.4°F16.9°C 64% 0.1 mph NW0.2 kmh NW 2.9 mph4.7 kmh 29.83 in1010.2 mb - 0.00 in0.0 mm 0.00 in0.0 mm
07:10 AM 75.0°F23.9°C 63.3°F17.4°C 67% Calm Calm -- 29.83 in1010.2 mb - 0.00 in0.0 mm 0.00 in0.0 mm
07:00 AM 74.4°F23.6°C 63.9°F17.7°C 70% Calm Calm -- 29.83 in1010.2 mb - 0.00 in0.0 mm 0.00 in0.0 mm
06:50 AM 73.9°F23.3°C 64.7°F18.2°C 73% Calm Calm -- 29.83 in1010.2 mb - 0.00 in0.0 mm 0.00 in0.0 mm
06:40 AM 72.7°F22.6°C 63.9°F17.7°C 74% Calm Calm -- 29.83 in1010.2 mb - 0.00 in0.0 mm 0.00 in0.0 mm
06:30 AM 72.0°F22.2°C 63.7°F17.6°C 75% 0.2 mph NE0.3 kmh NE -- 29.84 in1010.5 mb - 0.00 in0.0 mm 0.00 in0.0 mm
06:20 AM 71.2°F21.8°C 63.7°F17.6°C 77% 0.5 mph NNE0.8 kmh NNE -- 29.84 in1010.5 mb - 0.00 in0.0 mm 0.00 in0.0 mm
06:10 AM 70.1°F21.2°C 62.9°F17.2°C 78% 1.5 mph NNE2.4 kmh NNE 5.1 mph8.2 kmh 29.84 in1010.5 mb - 0.00 in0.0 mm 0.00 in0.0 mm
06:00 AM 69.4°F20.8°C 62.2°F16.8°C 78% 1.4 mph NE2.3 kmh NE 4.0 mph6.4 kmh 29.83 in1010.2 mb - 0.00 in0.0 mm 0.00 in0.0 mm
05:50 AM 68.5°F20.3°C 61.8°F16.6°C 79% 2.1 mph NNE3.4 kmh NNE 5.4 mph8.7 kmh 29.83 in1010.2 mb - 0.00 in0.0 mm 0.00 in0.0 mm
05:40 AM 67.7°F19.8°C 61.3°F16.3°C 80% 3.4 mph NNE5.5 kmh NNE 4.9 mph7.9 kmh 29.83 in1010.2 mb - 0.00 in0.0 mm 0.00 in0.0 mm
05:30 AM 67.1°F19.5°C 60.7°F15.9°C 80% 2.6 mph NE4.2 kmh NE 4.5 mph7.2 kmh 29.83 in1010.2 mb - 0.00 in0.0 mm 0.00 in0.0 mm
05:20 AM 66.7°F19.3°C 60.4°F15.8°C 80% 3.3 mph NE5.3 kmh NE 6.7 mph10.8 kmh 29.83 in1010.2 mb - 0.00 in0.0 mm 0.00 in0.0 mm
05:10 AM 66.4°F19.1°C 60.4°F15.8°C 81% 3.5 mph NE5.6 kmh NE 4.2 mph6.8 kmh 29.83 in1010.2 mb - 0.00 in0.0 mm 0.00 in0.0 mm
05:00 AM 66.4°F19.1°C 60.4°F15.8°C 81% 3.3 mph NE5.3 kmh NE 7.4 mph11.9 kmh 29.83 in1010.2 mb - 0.00 in0.0 mm 0.00 in0.0 mm
04:50 AM 66.4°F19.1°C 60.0°F15.6°C 80% 2.4 mph NNE3.9 kmh NNE 5.8 mph9.3 kmh 29.82 in1009.8 mb - 0.00 in0.0 mm 0.00 in0.0 mm
04:40 AM 66.7°F19.3°C 60.4°F15.8°C 80% 4.7 mph NNE7.6 kmh NNE 4.9 mph7.9 kmh 29.83 in1010.2 mb - 0.00 in0.0 mm 0.00 in0.0 mm
04:30 AM 66.9°F19.4°C 60.2°F15.7°C 79% 4.8 mph NNE7.7 kmh NNE 6.3 mph10.1 kmh 29.82 in1009.8 mb - 0.00 in0.0 mm 0.00 in0.0 mm
04:20 AM 66.7°F19.3°C 60.0°F15.6°C 79% 4.4 mph NNE7.1 kmh NNE 7.2 mph11.6 kmh 29.82 in1009.8 mb - 0.00 in0.0 mm 0.00 in0.0 mm
04:10 AM 66.2°F19.0°C 59.5°F15.3°C 79% 4.6 mph NNE7.4 kmh NNE 6.0 mph9.7 kmh 29.82 in1009.8 mb - 0.00 in0.0 mm 0.00 in0.0 mm
04:00 AM 66.0°F18.9°C 59.0°F15.0°C 78% 3.7 mph NE6.0 kmh NE 5.4 mph8.7 kmh 29.82 in1009.8 mb - 0.00 in0.0 mm 0.00 in0.0 mm
03:50 AM 66.4°F19.1°C 59.3°F15.2°C 78% 5.4 mph NNE8.7 kmh NNE 6.7 mph10.8 kmh 29.82 in1009.8 mb - 0.00 in0.0 mm 0.00 in0.0 mm
03:40 AM 66.6°F19.2°C 59.5°F15.3°C 78% 3.9 mph NE6.3 kmh NE 6.7 mph10.8 kmh 29.82 in1009.8 mb - 0.00 in0.0 mm 0.00 in0.0 mm
03:30 AM 66.6°F19.2°C 59.5°F15.3°C 78% 5.4 mph NE8.7 kmh NE 6.5 mph10.5 kmh 29.82 in1009.8 mb - 0.00 in0.0 mm 0.00 in0.0 mm
03:20 AM 66.6°F19.2°C 59.5°F15.3°C 78% 1.8 mph NNE2.9 kmh NNE 5.6 mph9.0 kmh 29.82 in1009.8 mb - 0.00 in0.0 mm 0.00 in0.0 mm
03:00 AM 66.0°F18.9°C 59.0°F15.0°C 78% 3.5 mph NNE5.6 kmh NNE 4.0 mph6.4 kmh 29.83 in1010.2 mb - 0.00 in0.0 mm 0.00 in0.0 mm
02:50 AM 66.3°F19.1°C 59.2°F15.1°C 78% 3.2 mph NNE5.1 kmh NNE 5.6 mph9.0 kmh 29.83 in1010.2 mb - 0.00 in0.0 mm 0.00 in0.0 mm
02:40 AM 66.4°F19.1°C 59.3°F15.2°C 78% 3.2 mph NE5.1 kmh NE 4.7 mph7.6 kmh 29.82 in1009.8 mb - 0.00 in0.0 mm 0.00 in0.0 mm
02:30 AM 66.4°F19.1°C 59.3°F15.2°C 78% 3.1 mph NNE5.0 kmh NNE 6.0 mph9.7 kmh 29.82 in1009.8 mb - 0.00 in0.0 mm 0.00 in0.0 mm
02:20 AM 66.6°F19.2°C 59.5°F15.3°C 78% 2.2 mph NNE3.5 kmh NNE 3.1 mph5.0 kmh 29.82 in1009.8 mb - 0.00 in0.0 mm 0.00 in0.0 mm
02:10 AM 66.9°F19.4°C 59.8°F15.4°C 78% Calm Calm -- 29.82 in1009.8 mb - 0.00 in0.0 mm 0.00 in0.0 mm
02:00 AM 66.9°F19.4°C 59.8°F15.4°C 78% 1.9 mph NNE3.1 kmh NNE 3.6 mph5.8 kmh 29.82 in1009.8 mb - 0.00 in0.0 mm 0.00 in0.0 mm
01:50 AM 66.9°F19.4°C 59.8°F15.4°C 78% 1.1 mph NE1.8 kmh NE 4.0 mph6.4 kmh 29.82 in1009.8 mb - 0.00 in0.0 mm 0.00 in0.0 mm
01:40 AM 66.9°F19.4°C 59.5°F15.3°C 77% 3.9 mph NNE6.3 kmh NNE 5.8 mph9.3 kmh 29.83 in1010.2 mb - 0.00 in0.0 mm 0.00 in0.0 mm
01:30 AM 67.1°F19.5°C 59.6°F15.3°C 77% 2.7 mph NNE4.3 kmh NNE 4.5 mph7.2 kmh 29.82 in1009.8 mb - 0.00 in0.0 mm 0.00 in0.0 mm
01:20 AM 67.3°F19.6°C 59.5°F15.3°C 76% 3.7 mph NNE6.0 kmh NNE 4.7 mph7.6 kmh 29.83 in1010.2 mb - 0.00 in0.0 mm 0.00 in0.0 mm
01:10 AM 67.3°F19.6°C 59.5°F15.3°C 76% 2.1 mph NNE3.4 kmh NNE 4.9 mph7.9 kmh 29.83 in1010.2 mb - 0.00 in0.0 mm 0.00 in0.0 mm
01:00 AM 67.3°F19.6°C 59.1°F15.1°C 75% 2.7 mph NNE4.3 kmh NNE 3.1 mph5.0 kmh 29.83 in1010.2 mb - 0.00 in0.0 mm 0.00 in0.0 mm
12:50 AM 67.3°F19.6°C 59.1°F15.1°C 75% 1.7 mph NNE2.7 kmh NNE 3.6 mph5.8 kmh 29.83 in1010.2 mb - 0.00 in0.0 mm 0.00 in0.0 mm
12:40 AM 66.9°F19.4°C 59.1°F15.1°C 76% 0.1 mph NNE0.2 kmh NNE -- 29.84 in1010.5 mb - 0.00 in0.0 mm 0.00 in0.0 mm
12:30 AM 66.7°F19.3°C 58.9°F14.9°C 76% Calm Calm -- 29.84 in1010.5 mb - 0.00 in0.0 mm 0.00 in0.0 mm
12:20 AM 66.4°F19.1°C 58.6°F14.8°C 76% Calm Calm -- 29.84 in1010.5 mb - 0.00 in0.0 mm 0.00 in0.0 mm
12:10 AM 66.4°F19.1°C 58.6°F14.8°C 76% Calm Calm -- 29.84 in1010.5 mb - 0.00 in0.0 mm 0.00 in0.0 mm
12:00 AM 66.4°F19.1°C 58.2°F14.6°C 75% Calm Calm -- 29.84 in1010.5 mb - 0.00 in0.0 mm 0.00 in0.0 mm